sensor_id;sensor_type;location;lat;lon;timestamp;P1;durP1;ratioP1;P2;durP2;ratioP2
43706;SDS011;61348;53.392;-6.248;2023-03-11T12:51:04;4.03;;;1.58;;
43706;SDS011;61348;53.392;-6.248;2023-03-11T13:01:50;3.88;;;1.83;;
43706;SDS011;61348;53.392;-6.248;2023-03-11T13:09:39;8.93;;;2.65;;
43706;SDS011;61348;53.392;-6.248;2023-03-11T13:31:04;3.00;;;2.17;;
43706;SDS011;61348;53.392;-6.248;2023-03-11T13:33:51;4.95;;;2.33;;
43706;SDS011;61348;53.392;-6.248;2023-03-11T13:36:27;8.88;;;2.85;;
43706;SDS011;61348;53.392;-6.248;2023-03-11T13:42:25;11.02;;;5.20;;
43706;SDS011;61348;53.392;-6.248;2023-03-11T13:44:56;13.32;;;3.60;;
43706;SDS011;61348;53.392;-6.248;2023-03-11T13:47:24;7.43;;;2.95;;
43706;SDS011;61348;53.392;-6.248;2023-03-11T13:52:32;4.65;;;1.95;;
43706;SDS011;61348;53.392;-6.248;2023-03-11T13:55:06;11.70;;;3.95;;
43706;SDS011;61348;53.392;-6.248;2023-03-11T13:57:49;10.50;;;3.15;;
43706;SDS011;61348;53.392;-6.248;2023-03-11T14:00:27;5.90;;;3.08;;
43706;SDS011;61348;53.392;-6.248;2023-03-11T14:03:02;6.38;;;2.90;;
43706;SDS011;61348;53.392;-6.248;2023-03-11T14:05:38;6.15;;;2.13;;
43706;SDS011;61348;53.392;-6.248;2023-03-11T14:10:56;5.78;;;1.88;;
43706;SDS011;61348;53.392;-6.248;2023-03-11T14:13:26;7.72;;;2.10;;
43706;SDS011;61348;53.392;-6.248;2023-03-11T14:15:59;5.57;;;2.00;;
43706;SDS011;61348;53.392;-6.248;2023-03-11T14:18:40;4.75;;;2.58;;
43706;SDS011;61348;53.392;-6.248;2023-03-11T14:21:15;2.70;;;1.70;;
43706;SDS011;61348;53.392;-6.248;2023-03-11T14:23:45;4.43;;;2.00;;
43706;SDS011;61348;53.392;-6.248;2023-03-11T14:26:14;4.70;;;2.83;;
43706;SDS011;61348;53.392;-6.248;2023-03-11T14:28:48;3.50;;;1.77;;
43706;SDS011;61348;53.392;-6.248;2023-03-11T14:33:58;4.63;;;2.45;;
43706;SDS011;61348;53.392;-6.248;2023-03-11T14:36:46;7.57;;;3.70;;
43706;SDS011;61348;53.392;-6.248;2023-03-11T14:44:34;13.98;;;3.03;;
43706;SDS011;61348;53.392;-6.248;2023-03-11T14:47:52;5.68;;;4.15;;
43706;SDS011;61348;53.392;-6.248;2023-03-11T14:50:05;13.35;;;3.50;;
43706;SDS011;61348;53.392;-6.248;2023-03-11T14:52:42;5.32;;;2.45;;
43706;SDS011;61348;53.392;-6.248;2023-03-11T14:55:17;10.55;;;3.45;;
43706;SDS011;61348;53.392;-6.248;2023-03-11T14:57:51;7.03;;;3.45;;
43706;SDS011;61348;53.392;-6.248;2023-03-11T15:00:26;10.45;;;3.05;;
43706;SDS011;61348;53.392;-6.248;2023-03-11T15:05:51;4.87;;;2.83;;
43706;SDS011;61348;53.392;-6.248;2023-03-11T15:08:22;6.20;;;3.00;;
43706;SDS011;61348;53.392;-6.248;2023-03-11T15:11:26;10.80;;;3.90;;
43706;SDS011;61348;53.392;-6.248;2023-03-11T15:13:47;12.25;;;6.78;;
43706;SDS011;61348;53.392;-6.248;2023-03-11T15:16:23;13.57;;;5.88;;
43706;SDS011;61348;53.392;-6.248;2023-03-11T15:19:41;18.23;;;9.73;;
43706;SDS011;61348;53.392;-6.248;2023-03-11T15:21:51;8.13;;;4.38;;
43706;SDS011;61348;53.392;-6.248;2023-03-11T15:24:20;8.43;;;3.55;;
43706;SDS011;61348;53.392;-6.248;2023-03-11T15:26:55;14.00;;;4.20;;
43706;SDS011;61348;53.392;-6.248;2023-03-11T15:29:22;6.53;;;3.47;;
43706;SDS011;61348;53.392;-6.248;2023-03-11T15:31:51;6.95;;;3.42;;
43706;SDS011;61348;53.392;-6.248;2023-03-11T15:34:22;11.32;;;4.05;;
43706;SDS011;61348;53.392;-6.248;2023-03-11T15:44:37;10.80;;;4.35;;
43706;SDS011;61348;53.392;-6.248;2023-03-11T15:47:11;10.48;;;4.22;;
43706;SDS011;61348;53.392;-6.248;2023-03-11T15:49:41;9.40;;;3.88;;
43706;SDS011;61348;53.392;-6.248;2023-03-11T15:52:08;5.85;;;3.80;;
43706;SDS011;61348;53.392;-6.248;2023-03-11T15:54:35;5.93;;;2.72;;
43706;SDS011;61348;53.392;-6.248;2023-03-11T15:57:03;8.50;;;3.30;;
43706;SDS011;61348;53.392;-6.248;2023-03-11T15:59:34;8.10;;;3.25;;
43706;SDS011;61348;53.392;-6.248;2023-03-11T16:02:02;9.68;;;4.47;;
43706;SDS011;61348;53.392;-6.248;2023-03-11T16:04:29;7.10;;;4.60;;
43706;SDS011;61348;53.392;-6.248;2023-03-11T16:06:56;7.05;;;3.80;;
43706;SDS011;61348;53.392;-6.248;2023-03-11T16:09:33;8.98;;;3.90;;
43706;SDS011;61348;53.392;-6.248;2023-03-11T16:12:00;9.15;;;4.65;;
43706;SDS011;61348;53.392;-6.248;2023-03-11T16:14:28;11.55;;;3.90;;
43706;SDS011;61348;53.392;-6.248;2023-03-11T16:16:55;6.78;;;4.15;;
43706;SDS011;61348;53.392;-6.248;2023-03-11T16:19:21;6.32;;;3.58;;
43706;SDS011;61348;53.392;-6.248;2023-03-11T16:21:48;7.72;;;3.90;;
43706;SDS011;61348;53.392;-6.248;2023-03-11T16:24:18;9.52;;;4.18;;
43706;SDS011;61348;53.392;-6.248;2023-03-11T16:26:48;9.90;;;4.95;;
43706;SDS011;61348;53.392;-6.248;2023-03-11T16:29:17;7.32;;;5.15;;
43706;SDS011;61348;53.392;-6.248;2023-03-11T16:31:45;6.28;;;3.60;;
43706;SDS011;61348;53.392;-6.248;2023-03-11T16:34:12;5.45;;;4.43;;
43706;SDS011;61348;53.392;-6.248;2023-03-11T16:36:39;14.05;;;6.63;;
43706;SDS011;61348;53.392;-6.248;2023-03-11T16:39:06;15.60;;;8.02;;
43706;SDS011;61348;53.392;-6.248;2023-03-11T16:41:40;20.17;;;9.38;;
43706;SDS011;61348;53.392;-6.248;2023-03-11T16:44:10;27.08;;;10.80;;
43706;SDS011;61348;53.392;-6.248;2023-03-11T16:46:39;17.08;;;9.02;;
43706;SDS011;61348;53.392;-6.248;2023-03-11T16:49:06;25.33;;;16.23;;
43706;SDS011;61348;53.392;-6.248;2023-03-11T16:51:32;15.80;;;10.93;;
43706;SDS011;61348;53.392;-6.248;2023-03-11T16:53:59;13.38;;;8.32;;
43706;SDS011;61348;53.392;-6.248;2023-03-11T16:56:26;18.80;;;11.48;;
43706;SDS011;61348;53.392;-6.248;2023-03-11T16:58:53;36.42;;;18.92;;
43706;SDS011;61348;53.392;-6.248;2023-03-11T17:01:19;82.40;;;40.00;;
43706;SDS011;61348;53.392;-6.248;2023-03-11T17:03:50;48.97;;;23.02;;
43706;SDS011;61348;53.392;-6.248;2023-03-11T17:06:17;56.40;;;24.40;;
43706;SDS011;61348;53.392;-6.248;2023-03-11T17:08:45;100.15;;;40.90;;
43706;SDS011;61348;53.392;-6.248;2023-03-11T17:11:18;34.20;;;17.25;;
43706;SDS011;61348;53.392;-6.248;2023-03-11T17:13:47;104.18;;;41.03;;
43706;SDS011;61348;53.392;-6.248;2023-03-11T17:16:15;56.78;;;27.75;;
43706;SDS011;61348;53.392;-6.248;2023-03-11T17:18:42;30.83;;;15.30;;
43706;SDS011;61348;53.392;-6.248;2023-03-11T17:21:09;37.65;;;20.83;;
43706;SDS011;61348;53.392;-6.248;2023-03-11T17:23:38;27.85;;;14.98;;
43706;SDS011;61348;53.392;-6.248;2023-03-11T17:26:08;25.27;;;14.77;;
43706;SDS011;61348;53.392;-6.248;2023-03-11T17:28:37;25.63;;;14.70;;
43706;SDS011;61348;53.392;-6.248;2023-03-11T17:31:11;14.93;;;9.98;;
43706;SDS011;61348;53.392;-6.248;2023-03-11T17:33:40;29.45;;;17.10;;
43706;SDS011;61348;53.392;-6.248;2023-03-11T17:36:08;41.63;;;19.95;;
43706;SDS011;61348;53.392;-6.248;2023-03-11T17:38:37;43.85;;;17.92;;
43706;SDS011;61348;53.392;-6.248;2023-03-11T17:41:08;39.80;;;20.58;;
43706;SDS011;61348;53.392;-6.248;2023-03-11T17:43:37;28.60;;;17.58;;
43706;SDS011;61348;53.392;-6.248;2023-03-11T17:46:05;34.10;;;19.58;;
43706;SDS011;61348;53.392;-6.248;2023-03-11T17:48:33;24.13;;;15.07;;
43706;SDS011;61348;53.392;-6.248;2023-03-11T17:51:03;31.33;;;19.25;;
43706;SDS011;61348;53.392;-6.248;2023-03-11T17:53:33;53.00;;;32.85;;
43706;SDS011;61348;53.392;-6.248;2023-03-11T17:56:01;32.33;;;20.40;;
43706;SDS011;61348;53.392;-6.248;2023-03-11T17:58:28;33.88;;;19.73;;
43706;SDS011;61348;53.392;-6.248;2023-03-11T18:00:55;86.75;;;45.30;;
43706;SDS011;61348;53.392;-6.248;2023-03-11T18:03:22;59.97;;;32.88;;
43706;SDS011;61348;53.392;-6.248;2023-03-11T18:05:55;39.38;;;24.73;;
43706;SDS011;61348;53.392;-6.248;2023-03-11T18:08:24;46.80;;;26.65;;
43706;SDS011;61348;53.392;-6.248;2023-03-11T18:10:51;51.40;;;26.80;;
43706;SDS011;61348;53.392;-6.248;2023-03-11T18:13:19;65.30;;;35.92;;
43706;SDS011;61348;53.392;-6.248;2023-03-11T18:15:52;65.00;;;35.35;;
43706;SDS011;61348;53.392;-6.248;2023-03-11T18:18:23;51.08;;;31.08;;
43706;SDS011;61348;53.392;-6.248;2023-03-11T18:20:49;46.88;;;28.20;;
43706;SDS011;61348;53.392;-6.248;2023-03-11T18:23:17;57.10;;;30.67;;
43706;SDS011;61348;53.392;-6.248;2023-03-11T18:25:48;84.70;;;45.47;;
43706;SDS011;61348;53.392;-6.248;2023-03-11T18:28:17;57.45;;;36.22;;
43706;SDS011;61348;53.392;-6.248;2023-03-11T18:30:44;69.50;;;38.38;;
43706;SDS011;61348;53.392;-6.248;2023-03-11T18:33:11;86.00;;;46.03;;
43706;SDS011;61348;53.392;-6.248;2023-03-11T18:35:39;70.53;;;41.92;;
43706;SDS011;61348;53.392;-6.248;2023-03-11T18:38:06;82.22;;;46.17;;
43706;SDS011;61348;53.392;-6.248;2023-03-11T18:40:33;85.28;;;47.55;;
43706;SDS011;61348;53.392;-6.248;2023-03-11T18:42:59;92.82;;;52.95;;
43706;SDS011;61348;53.392;-6.248;2023-03-11T18:45:26;94.60;;;55.45;;
43706;SDS011;61348;53.392;-6.248;2023-03-11T18:47:53;83.70;;;48.97;;
43706;SDS011;61348;53.392;-6.248;2023-03-11T18:50:20;85.05;;;50.78;;
43706;SDS011;61348;53.392;-6.248;2023-03-11T18:52:50;89.03;;;53.20;;
43706;SDS011;61348;53.392;-6.248;2023-03-11T18:55:18;101.25;;;56.78;;
43706;SDS011;61348;53.392;-6.248;2023-03-11T18:57:45;85.07;;;47.88;;
43706;SDS011;61348;53.392;-6.248;2023-03-11T19:00:12;72.72;;;45.08;;
43706;SDS011;61348;53.392;-6.248;2023-03-11T19:02:41;64.25;;;35.13;;
43706;SDS011;61348;53.392;-6.248;2023-03-11T19:05:08;49.17;;;26.17;;
43706;SDS011;61348;53.392;-6.248;2023-03-11T19:07:36;31.23;;;17.75;;
43706;SDS011;61348;53.392;-6.248;2023-03-11T19:10:02;32.10;;;17.38;;
43706;SDS011;61348;53.392;-6.248;2023-03-11T19:12:29;21.88;;;13.85;;
43706;SDS011;61348;53.392;-6.248;2023-03-11T19:14:58;24.00;;;13.20;;
43706;SDS011;61348;53.392;-6.248;2023-03-11T19:17:25;24.70;;;14.32;;
43706;SDS011;61348;53.392;-6.248;2023-03-11T19:19:52;26.42;;;15.77;;
43706;SDS011;61348;53.392;-6.248;2023-03-11T19:22:19;26.98;;;17.63;;
43706;SDS011;61348;53.392;-6.248;2023-03-11T19:24:45;32.25;;;16.98;;
43706;SDS011;61348;53.392;-6.248;2023-03-11T19:27:12;26.55;;;14.70;;
43706;SDS011;61348;53.392;-6.248;2023-03-11T19:29:39;30.10;;;16.25;;
43706;SDS011;61348;53.392;-6.248;2023-03-11T19:32:05;29.45;;;16.15;;
43706;SDS011;61348;53.392;-6.248;2023-03-11T19:34:32;32.72;;;16.45;;
43706;SDS011;61348;53.392;-6.248;2023-03-11T19:36:59;28.02;;;15.60;;
43706;SDS011;61348;53.392;-6.248;2023-03-11T19:39:25;27.00;;;12.88;;
43706;SDS011;61348;53.392;-6.248;2023-03-11T19:41:52;21.17;;;13.15;;
43706;SDS011;61348;53.392;-6.248;2023-03-11T19:44:20;34.03;;;14.02;;
43706;SDS011;61348;53.392;-6.248;2023-03-11T19:46:47;40.70;;;14.65;;
43706;SDS011;61348;53.392;-6.248;2023-03-11T19:49:14;29.13;;;13.13;;
43706;SDS011;61348;53.392;-6.248;2023-03-11T19:51:41;38.15;;;15.75;;
43706;SDS011;61348;53.392;-6.248;2023-03-11T19:54:15;34.50;;;15.00;;
43706;SDS011;61348;53.392;-6.248;2023-03-11T19:56:43;34.42;;;12.13;;
43706;SDS011;61348;53.392;-6.248;2023-03-11T19:59:10;36.65;;;12.27;;
43706;SDS011;61348;53.392;-6.248;2023-03-11T20:01:37;34.53;;;11.82;;
43706;SDS011;61348;53.392;-6.248;2023-03-11T20:04:04;43.63;;;13.68;;
43706;SDS011;61348;53.392;-6.248;2023-03-11T20:06:31;41.72;;;11.27;;
43706;SDS011;61348;53.392;-6.248;2023-03-11T20:08:57;41.60;;;12.40;;
43706;SDS011;61348;53.392;-6.248;2023-03-11T20:11:24;36.53;;;12.05;;
43706;SDS011;61348;53.392;-6.248;2023-03-11T20:13:51;36.55;;;10.73;;
43706;SDS011;61348;53.392;-6.248;2023-03-11T20:16:18;51.17;;;11.93;;
43706;SDS011;61348;53.392;-6.248;2023-03-11T20:18:48;63.72;;;15.77;;
43706;SDS011;61348;53.392;-6.248;2023-03-11T20:21:16;82.30;;;18.90;;
43706;SDS011;61348;53.392;-6.248;2023-03-11T20:23:44;64.93;;;16.42;;
43706;SDS011;61348;53.392;-6.248;2023-03-11T20:26:11;82.50;;;16.25;;
43706;SDS011;61348;53.392;-6.248;2023-03-11T20:28:39;75.72;;;17.08;;
43706;SDS011;61348;53.392;-6.248;2023-03-11T20:31:07;77.45;;;15.48;;
43706;SDS011;61348;53.392;-6.248;2023-03-11T20:33:34;87.63;;;18.50;;
43706;SDS011;61348;53.392;-6.248;2023-03-11T20:36:03;64.30;;;15.43;;
43706;SDS011;61348;53.392;-6.248;2023-03-11T20:38:31;68.57;;;16.67;;
43706;SDS011;61348;53.392;-6.248;2023-03-11T20:40:58;65.07;;;14.18;;
43706;SDS011;61348;53.392;-6.248;2023-03-11T20:43:25;74.60;;;14.40;;
43706;SDS011;61348;53.392;-6.248;2023-03-11T20:45:52;75.22;;;14.98;;
43706;SDS011;61348;53.392;-6.248;2023-03-11T20:48:19;76.90;;;14.95;;
43706;SDS011;61348;53.392;-6.248;2023-03-11T20:50:46;78.25;;;15.95;;
43706;SDS011;61348;53.392;-6.248;2023-03-11T20:53:13;59.45;;;14.55;;
43706;SDS011;61348;53.392;-6.248;2023-03-11T20:55:41;76.10;;;14.35;;
43706;SDS011;61348;53.392;-6.248;2023-03-11T20:58:08;77.50;;;15.02;;
43706;SDS011;61348;53.392;-6.248;2023-03-11T21:00:35;66.97;;;15.10;;
43706;SDS011;61348;53.392;-6.248;2023-03-11T21:03:01;67.78;;;14.75;;
43706;SDS011;61348;53.392;-6.248;2023-03-11T21:05:33;55.10;;;12.00;;
43706;SDS011;61348;53.392;-6.248;2023-03-11T21:08:02;55.13;;;13.35;;
43706;SDS011;61348;53.392;-6.248;2023-03-11T21:10:30;65.60;;;12.80;;
43706;SDS011;61348;53.392;-6.248;2023-03-11T21:12:57;56.88;;;13.85;;
43706;SDS011;61348;53.392;-6.248;2023-03-11T21:15:24;57.72;;;11.77;;
43706;SDS011;61348;53.392;-6.248;2023-03-11T21:17:51;47.85;;;11.10;;
43706;SDS011;61348;53.392;-6.248;2023-03-11T21:20:18;52.63;;;14.27;;
43706;SDS011;61348;53.392;-6.248;2023-03-11T21:22:44;50.00;;;11.27;;
43706;SDS011;61348;53.392;-6.248;2023-03-11T21:25:11;65.55;;;15.00;;
43706;SDS011;61348;53.392;-6.248;2023-03-11T21:27:38;42.55;;;10.25;;
43706;SDS011;61348;53.392;-6.248;2023-03-11T21:30:05;49.85;;;11.18;;
43706;SDS011;61348;53.392;-6.248;2023-03-11T21:32:32;45.80;;;12.05;;
43706;SDS011;61348;53.392;-6.248;2023-03-11T21:34:59;53.42;;;11.18;;
43706;SDS011;61348;53.392;-6.248;2023-03-11T21:37:27;48.05;;;10.20;;
43706;SDS011;61348;53.392;-6.248;2023-03-11T21:39:54;40.80;;;9.85;;
43706;SDS011;61348;53.392;-6.248;2023-03-11T21:42:21;51.30;;;11.75;;
43706;SDS011;61348;53.392;-6.248;2023-03-11T21:44:48;45.80;;;9.82;;
43706;SDS011;61348;53.392;-6.248;2023-03-11T21:47:17;42.90;;;9.93;;
43706;SDS011;61348;53.392;-6.248;2023-03-11T21:49:44;52.88;;;9.77;;
43706;SDS011;61348;53.392;-6.248;2023-03-11T21:52:11;50.40;;;10.32;;
43706;SDS011;61348;53.392;-6.248;2023-03-11T21:54:37;43.47;;;10.68;;
43706;SDS011;61348;53.392;-6.248;2023-03-11T21:57:04;53.17;;;9.52;;
43706;SDS011;61348;53.392;-6.248;2023-03-11T21:59:31;48.55;;;9.15;;
43706;SDS011;61348;53.392;-6.248;2023-03-11T22:01:58;36.33;;;9.00;;
43706;SDS011;61348;53.392;-6.248;2023-03-11T22:04:29;48.92;;;11.32;;
43706;SDS011;61348;53.392;-6.248;2023-03-11T22:06:56;43.22;;;8.80;;
43706;SDS011;61348;53.392;-6.248;2023-03-11T22:09:23;29.15;;;8.25;;
43706;SDS011;61348;53.392;-6.248;2023-03-11T22:11:51;41.28;;;8.65;;
43706;SDS011;61348;53.392;-6.248;2023-03-11T22:14:19;29.58;;;6.57;;
43706;SDS011;61348;53.392;-6.248;2023-03-11T22:16:45;41.03;;;8.70;;
43706;SDS011;61348;53.392;-6.248;2023-03-11T22:19:12;34.17;;;6.82;;
43706;SDS011;61348;53.392;-6.248;2023-03-11T22:21:39;32.35;;;7.72;;
43706;SDS011;61348;53.392;-6.248;2023-03-11T22:24:06;41.97;;;7.07;;
43706;SDS011;61348;53.392;-6.248;2023-03-11T22:26:33;22.77;;;7.03;;
43706;SDS011;61348;53.392;-6.248;2023-03-11T22:28:59;35.40;;;6.90;;
43706;SDS011;61348;53.392;-6.248;2023-03-11T22:31:29;33.88;;;6.68;;
43706;SDS011;61348;53.392;-6.248;2023-03-11T22:33:56;35.80;;;7.75;;
43706;SDS011;61348;53.392;-6.248;2023-03-11T22:36:23;42.92;;;9.73;;
43706;SDS011;61348;53.392;-6.248;2023-03-11T22:38:49;35.22;;;8.15;;
43706;SDS011;61348;53.392;-6.248;2023-03-11T22:41:16;27.73;;;6.72;;
43706;SDS011;61348;53.392;-6.248;2023-03-11T22:43:44;38.63;;;8.77;;
43706;SDS011;61348;53.392;-6.248;2023-03-11T22:46:12;41.50;;;7.50;;
43706;SDS011;61348;53.392;-6.248;2023-03-11T22:48:39;45.05;;;7.63;;
43706;SDS011;61348;53.392;-6.248;2023-03-11T22:51:05;37.13;;;7.45;;
43706;SDS011;61348;53.392;-6.248;2023-03-11T22:53:32;35.08;;;7.72;;
43706;SDS011;61348;53.392;-6.248;2023-03-11T22:55:59;27.70;;;5.30;;
43706;SDS011;61348;53.392;-6.248;2023-03-11T22:58:31;22.67;;;5.47;;
43706;SDS011;61348;53.392;-6.248;2023-03-11T23:00:57;25.48;;;5.65;;
43706;SDS011;61348;53.392;-6.248;2023-03-11T23:03:26;28.98;;;6.80;;
43706;SDS011;61348;53.392;-6.248;2023-03-11T23:05:53;23.48;;;6.63;;
43706;SDS011;61348;53.392;-6.248;2023-03-11T23:08:24;21.23;;;5.93;;
43706;SDS011;61348;53.392;-6.248;2023-03-11T23:10:50;33.83;;;7.93;;
43706;SDS011;61348;53.392;-6.248;2023-03-11T23:13:17;36.90;;;8.30;;
43706;SDS011;61348;53.392;-6.248;2023-03-11T23:15:45;46.70;;;8.30;;
43706;SDS011;61348;53.392;-6.248;2023-03-11T23:18:12;41.05;;;9.63;;
43706;SDS011;61348;53.392;-6.248;2023-03-11T23:20:41;37.88;;;8.48;;
43706;SDS011;61348;53.392;-6.248;2023-03-11T23:23:09;53.78;;;11.05;;
43706;SDS011;61348;53.392;-6.248;2023-03-11T23:25:38;45.53;;;8.40;;
43706;SDS011;61348;53.392;-6.248;2023-03-11T23:28:05;39.58;;;8.13;;
43706;SDS011;61348;53.392;-6.248;2023-03-11T23:30:33;49.75;;;11.02;;
43706;SDS011;61348;53.392;-6.248;2023-03-11T23:33:00;62.13;;;8.50;;
43706;SDS011;61348;53.392;-6.248;2023-03-11T23:35:30;51.00;;;8.93;;
43706;SDS011;61348;53.392;-6.248;2023-03-11T23:37:57;53.60;;;11.55;;
43706;SDS011;61348;53.392;-6.248;2023-03-11T23:40:25;39.85;;;7.97;;
43706;SDS011;61348;53.392;-6.248;2023-03-11T23:42:51;38.50;;;11.20;;
43706;SDS011;61348;53.392;-6.248;2023-03-11T23:45:18;55.30;;;10.02;;
43706;SDS011;61348;53.392;-6.248;2023-03-11T23:47:45;67.45;;;10.55;;
43706;SDS011;61348;53.392;-6.248;2023-03-11T23:50:12;50.00;;;11.23;;
43706;SDS011;61348;53.392;-6.248;2023-03-11T23:52:39;53.63;;;10.60;;
43706;SDS011;61348;53.392;-6.248;2023-03-11T23:55:06;64.10;;;11.73;;
43706;SDS011;61348;53.392;-6.248;2023-03-11T23:57:37;61.00;;;9.27;;
